createdAt,value
2018-02-22T00:01:17.419Z,-0.80
2018-02-22T00:06:38.341Z,-0.90
2018-02-22T00:12:01.483Z,-0.80
2018-02-22T00:17:25.946Z,-0.90
2018-02-22T00:22:45.976Z,-0.90
2018-02-22T00:27:50.669Z,-0.90
2018-02-22T00:32:53.525Z,-0.90
2018-02-22T00:37:56.720Z,-0.90
2018-02-22T00:42:59.648Z,-0.80
2018-02-22T00:48:03.673Z,-1.00
2018-02-22T00:53:07.483Z,-1.00
2018-02-22T00:58:11.389Z,-1.10
2018-02-22T01:03:14.875Z,-1.00
2018-02-22T01:08:17.934Z,-1.00
2018-02-22T01:13:20.882Z,-1.00
2018-02-22T01:18:26.122Z,-0.90
2018-02-22T01:23:29.146Z,-1.00
2018-02-22T01:28:32.929Z,-1.10
2018-02-22T01:33:36.644Z,-1.00
2018-02-22T01:38:41.814Z,-1.00
2018-02-22T01:43:45.285Z,-1.10
2018-02-22T01:48:48.696Z,-1.00
2018-02-22T01:53:51.713Z,-1.00
2018-02-22T01:58:54.611Z,-0.90
2018-02-22T02:03:57.947Z,-0.90
2018-02-22T02:09:02.511Z,-0.90
2018-02-22T02:14:05.537Z,-1.00
2018-02-22T02:19:08.425Z,-1.00
2018-02-22T02:24:11.423Z,-1.00
2018-02-22T02:29:16.417Z,-1.00
2018-02-22T02:34:19.623Z,-1.00
2018-02-22T02:39:22.534Z,-1.10
2018-02-22T02:44:25.377Z,-1.10
2018-02-22T02:49:28.399Z,-1.20
2018-02-22T02:54:31.331Z,-1.20
2018-02-22T02:59:35.099Z,-1.30
2018-02-22T03:04:38.456Z,-1.20
2018-02-22T03:09:42.002Z,-1.40
2018-02-22T03:14:45.901Z,-1.20
2018-02-22T03:19:48.913Z,-1.30
2018-02-22T03:24:54.925Z,-1.30
2018-02-22T03:29:57.930Z,-1.10
2018-02-22T03:35:00.788Z,-1.20
2018-02-22T03:40:03.701Z,-1.20
2018-02-22T03:45:06.705Z,-1.20
2018-02-22T03:50:10.184Z,-1.10
2018-02-22T03:55:13.064Z,-1.00
2018-02-22T04:00:16.057Z,-1.10
2018-02-22T04:05:19.049Z,-1.10
2018-02-22T04:10:21.979Z,-1.20
2018-02-22T04:15:24.988Z,-1.20
2018-02-22T04:20:28.047Z,-1.40
2018-02-22T04:25:32.371Z,-1.30
2018-02-22T04:30:35.325Z,-1.40
2018-02-22T04:35:43.602Z,-1.40
2018-02-22T04:40:46.483Z,-1.50
2018-02-22T04:45:49.596Z,-1.50
2018-02-22T04:50:52.448Z,-1.50
2018-02-22T04:55:55.385Z,-1.70
2018-02-22T05:00:59.164Z,-1.70
2018-02-22T05:06:02.113Z,-1.70
2018-02-22T05:11:05.013Z,-1.80
2018-02-22T05:16:07.878Z,-1.80
2018-02-22T05:21:11.773Z,-1.80
2018-02-22T05:26:14.585Z,-1.80
2018-02-22T05:31:17.389Z,-1.90
2018-02-22T05:36:20.193Z,-1.80
2018-02-22T05:46:56.756Z,-1.80
2018-02-22T05:51:59.764Z,-1.70
2018-02-22T05:57:02.617Z,-1.70
2018-02-22T06:02:05.614Z,-1.80
2018-02-22T06:07:08.674Z,-1.80
2018-02-22T06:12:11.559Z,-1.70
2018-02-22T06:17:15.034Z,-1.70
2018-02-22T06:22:18.200Z,-1.60
2018-02-22T06:27:21.077Z,-1.60
2018-02-22T06:32:36.524Z,-1.70
2018-02-22T06:37:39.392Z,-1.70
2018-02-22T06:42:43.061Z,-1.60
2018-02-22T06:47:46.510Z,-1.70
2018-02-22T06:52:50.267Z,-1.50
2018-02-22T06:57:53.417Z,-1.60
2018-02-22T07:02:56.467Z,-1.40
2018-02-22T07:07:59.364Z,-1.30
2018-02-22T07:13:02.180Z,-1.30
2018-02-22T07:18:04.968Z,-1.10
2018-02-22T07:23:16.651Z,-1.10
2018-02-22T07:28:10.806Z,-0.90
2018-02-22T07:33:13.746Z,-0.70
2018-02-22T07:38:18.844Z,-0.30
2018-02-22T07:43:21.703Z,-0.40
2018-02-22T07:48:24.541Z,0.00
2018-02-22T07:53:27.352Z,0.30
2018-02-22T07:58:30.194Z,0.40
2018-02-22T08:03:33.828Z,0.80
2018-02-22T08:08:36.676Z,0.70
2018-02-22T08:13:40.652Z,1.10
2018-02-22T08:18:43.806Z,1.30
2018-02-22T08:23:46.600Z,1.60
2018-02-22T08:28:49.439Z,1.90
2018-02-22T08:33:53.050Z,2.40
2018-02-22T08:38:56.624Z,2.60
2018-02-22T08:43:59.483Z,2.50
2018-02-22T08:49:02.335Z,2.80
2018-02-22T08:54:05.505Z,2.90
2018-02-22T08:59:08.529Z,3.40
2018-02-22T09:04:11.369Z,3.70
2018-02-22T09:09:14.242Z,3.70
2018-02-22T09:14:17.046Z,4.00
2018-02-22T09:19:19.900Z,4.50
2018-02-22T09:24:23.301Z,4.80
2018-02-22T09:29:26.112Z,4.80
2018-02-22T09:34:29.256Z,4.90
2018-02-22T09:39:32.188Z,4.90
2018-02-22T09:44:36.609Z,5.50
2018-02-22T09:49:39.425Z,5.40
2018-02-22T09:59:52.114Z,5.70
2018-02-22T10:04:54.988Z,6.10
2018-02-22T10:09:59.274Z,6.70
2018-02-22T10:15:02.978Z,6.70
2018-02-22T10:20:05.947Z,6.60
2018-02-22T10:25:09.137Z,6.50
2018-02-22T10:30:12.323Z,6.40
2018-02-22T10:35:15.886Z,6.50
2018-02-22T10:40:18.855Z,6.50
2018-02-22T10:45:21.670Z,7.10
2018-02-22T10:50:24.497Z,7.60
2018-02-22T10:55:27.289Z,7.50
2018-02-22T11:00:36.053Z,7.90
2018-02-22T11:05:39.001Z,8.00
2018-02-22T11:10:41.878Z,7.50
2018-02-22T11:15:45.481Z,7.70
2018-02-22T11:20:49.288Z,7.70
2018-02-22T11:26:03.660Z,8.00
2018-02-22T11:31:18.768Z,8.40
2018-02-22T11:36:36.491Z,8.00
2018-02-22T11:41:50.758Z,8.40
2018-02-22T11:47:12.376Z,8.30
2018-02-22T11:52:34.268Z,8.60
2018-02-22T11:57:58.111Z,8.80
2018-02-22T12:08:46.206Z,9.10
2018-02-22T12:14:07.264Z,9.40
2018-02-22T12:24:38.897Z,9.00
2018-02-22T12:30:00.871Z,8.90
2018-02-22T12:35:19.850Z,8.90
2018-02-22T12:40:42.063Z,8.80
2018-02-22T12:46:08.000Z,8.80
2018-02-22T12:51:29.036Z,8.50
2018-02-22T12:56:51.263Z,8.60
2018-02-22T13:02:09.991Z,8.60
2018-02-22T13:07:28.830Z,9.00
2018-02-22T13:12:46.556Z,8.90
2018-02-22T13:18:02.622Z,8.80
2018-02-22T13:23:22.364Z,8.70
2018-02-22T13:28:41.399Z,9.20
2018-02-22T13:34:05.861Z,9.40
2018-02-22T13:39:27.769Z,8.90
2018-02-22T13:45:07.997Z,8.80
2018-02-22T13:50:34.819Z,9.10
2018-02-22T13:55:53.587Z,8.60
2018-02-22T14:01:20.120Z,8.40
2018-02-22T14:06:39.813Z,8.60
2018-02-22T14:12:03.443Z,8.50
2018-02-22T14:17:21.256Z,7.80
2018-02-22T14:22:37.368Z,7.70
2018-02-22T14:27:53.734Z,7.60
2018-02-22T14:38:32.771Z,7.50
2018-02-22T14:43:57.926Z,7.70
2018-02-22T14:49:20.092Z,7.60
2018-02-22T14:54:45.583Z,7.80
2018-02-22T14:59:56.237Z,7.40
2018-02-22T15:05:12.306Z,7.30
2018-02-22T15:10:29.980Z,7.00
2018-02-22T15:21:12.514Z,7.10
2018-02-22T15:26:31.948Z,7.10
2018-02-22T15:31:54.571Z,7.00
2018-02-22T15:37:15.787Z,6.70
2018-02-22T15:42:26.903Z,5.90
2018-02-22T15:53:03.869Z,5.40
2018-02-22T15:58:21.038Z,4.70
2018-02-22T16:03:37.823Z,4.60
2018-02-22T16:08:54.906Z,4.30
2018-02-22T16:14:12.796Z,4.10
2018-02-22T16:19:23.354Z,4.00
2018-02-22T16:24:39.637Z,3.80
2018-02-22T16:29:55.509Z,3.50
2018-02-22T16:35:10.711Z,3.50
2018-02-22T16:40:25.860Z,3.40
2018-02-22T16:45:35.673Z,3.20
2018-02-22T16:56:15.168Z,3.00
2018-02-22T17:07:05.765Z,2.80
2018-02-22T17:12:23.499Z,2.70
2018-02-22T17:17:49.874Z,2.60
2018-02-22T17:23:16.648Z,2.60
2018-02-22T17:28:35.007Z,2.20
2018-02-22T17:33:51.694Z,2.10
2018-02-22T17:39:11.038Z,2.00
2018-02-22T17:44:26.576Z,2.00
2018-02-22T17:49:38.486Z,1.90
2018-02-22T17:54:58.549Z,1.80
2018-02-22T18:05:36.951Z,1.60
2018-02-22T18:11:00.840Z,1.40
2018-02-22T18:16:34.669Z,1.30
2018-02-22T18:21:52.721Z,1.30
2018-02-22T18:32:41.305Z,1.20
2018-02-22T18:37:50.969Z,1.20
2018-02-22T18:43:23.720Z,1.00
2018-02-22T18:54:08.334Z,1.00
2018-02-22T18:59:13.592Z,1.00
2018-02-22T19:04:16.692Z,0.90
2018-02-22T19:09:20.274Z,0.80
2018-02-22T19:14:23.585Z,0.90
2018-02-22T19:19:26.360Z,0.70
2018-02-22T19:24:29.246Z,0.70
2018-02-22T19:29:33.724Z,0.60
2018-02-22T19:34:37.372Z,0.50
2018-02-22T19:39:40.294Z,0.40
2018-02-22T19:44:44.108Z,0.40
2018-02-22T19:49:46.908Z,0.30
2018-02-22T19:54:49.767Z,0.30
2018-02-22T19:59:52.621Z,0.30
2018-02-22T20:04:57.050Z,0.20
2018-02-22T20:09:59.850Z,0.20
2018-02-22T20:15:02.691Z,0.30
2018-02-22T20:20:07.248Z,0.30
2018-02-22T20:25:10.130Z,0.20
2018-02-22T20:30:14.100Z,0.20
2018-02-22T20:35:24.812Z,0.10
2018-02-22T20:40:31.183Z,0.00
2018-02-22T20:45:34.954Z,0.00
2018-02-22T20:50:39.637Z,0.00
2018-02-22T20:55:47.758Z,0.00
2018-02-22T21:00:54.470Z,-0.10
2018-02-22T21:05:58.632Z,-0.20
2018-02-22T21:11:18.261Z,-0.20
2018-02-22T21:16:23.940Z,-0.10
2018-02-22T21:21:27.299Z,-0.10
2018-02-22T21:26:32.777Z,-0.10
2018-02-22T21:31:35.793Z,-0.30
2018-02-22T21:36:39.391Z,-0.20
2018-02-22T21:41:43.626Z,-0.40
2018-02-22T21:46:46.457Z,-0.50
2018-02-22T21:51:50.674Z,-0.40
2018-02-22T21:56:54.915Z,-0.50
2018-02-22T22:01:59.985Z,-0.30
2018-02-22T22:07:03.607Z,-0.50
2018-02-22T22:12:07.217Z,-0.50
2018-02-22T22:17:10.179Z,-0.50
2018-02-22T22:22:14.903Z,-0.40
2018-02-22T22:27:18.789Z,-0.50
2018-02-22T22:32:24.785Z,-0.60
2018-02-22T22:37:28.342Z,-0.60
2018-02-22T22:42:31.857Z,-0.70
2018-02-22T22:47:34.782Z,-0.80
2018-02-22T22:52:38.380Z,-0.70
2018-02-22T22:57:41.271Z,-0.80
2018-02-22T23:02:45.086Z,-0.80
2018-02-22T23:07:53.947Z,-0.70
2018-02-22T23:12:56.896Z,-0.80
2018-02-22T23:18:01.558Z,-0.90
2018-02-22T23:23:04.398Z,-0.90
2018-02-22T23:28:07.267Z,-0.90
2018-02-22T23:33:10.660Z,-0.90
2018-02-22T23:38:13.583Z,-1.00
2018-02-22T23:43:17.345Z,-1.00
2018-02-22T23:48:23.610Z,-0.90
2018-02-22T23:53:30.669Z,-0.90
2018-02-22T23:58:38.494Z,-1.00
